Time;durP1;ratioP1;P1;durP2;ratioP2;P2;SDS_P1;SDS_P2;PMS_P1;PMS_P2;Temp;Humidity;BMP_temperature;BMP_pressure;BME280_temperature;BME280_humidity;BME280_pressure;Samples;Min_cycle;Max_cycle;Signal;HPM_P1;HPM_P2
2023/01/03 00:00:01;;;;;;;5.93;3.33;;;16.90;63.70;;;;;;4997426;28;20461;-79
2023/01/03 00:02:29;;;;;;;8.30;3.30;;;16.90;63.80;;;;;;4990122;28;20457;-79
2023/01/03 00:04:58;;;;;;;4.93;2.90;;;16.80;63.60;;;;;;4991516;28;20474;-79
2023/01/03 00:07:44;;;;;;;3.73;2.90;;;16.80;63.60;;;;;;4985242;28;20453;-79
2023/01/03 00:10:11;;;;;;;3.93;2.53;;;16.80;63.60;;;;;;4985151;28;20472;-79
2023/01/03 00:12:39;;;;;;;5.30;3.13;;;16.80;63.80;;;;;;4998600;28;20422;-79
2023/01/03 00:15:08;;;;;;;10.33;3.53;;;16.80;63.50;;;;;;4999287;28;20540;-79
2023/01/03 00:17:36;;;;;;;3.80;2.77;;;16.80;63.40;;;;;;4978567;28;20454;-79
2023/01/03 00:20:07;;;;;;;6.90;3.03;;;16.80;63.50;;;;;;4995261;28;20469;-79
2023/01/03 00:22:35;;;;;;;3.70;3.10;;;16.80;63.40;;;;;;4984253;28;20468;-78
2023/01/03 00:25:03;;;;;;;4.33;2.93;;;16.80;63.50;;;;;;4987107;28;20449;-79
2023/01/03 00:27:32;;;;;;;6.57;3.70;;;16.80;63.80;;;;;;4989791;28;20461;-79
2023/01/03 00:30:00;;;;;;;5.30;3.67;;;16.80;63.80;;;;;;4996633;28;20488;-78
2023/01/03 00:32:28;;;;;;;4.50;3.30;;;16.80;63.40;;;;;;4996880;28;20445;-79
2023/01/03 00:34:56;;;;;;;6.83;3.17;;;16.80;63.50;;;;;;5004415;28;20476;-79
2023/01/03 00:37:33;;;;;;;6.00;3.60;;;16.70;63.40;;;;;;5005397;28;20477;-80
2023/01/03 00:40:00;;;;;;;8.40;3.60;;;16.70;63.40;;;;;;4997030;28;20469;-78
2023/01/03 00:42:29;;;;;;;7.80;3.60;;;16.70;63.80;;;;;;4995087;28;20492;-79
2023/01/03 00:44:57;;;;;;;5.53;3.50;;;16.70;63.50;;;;;;4991143;28;20434;-79
2023/01/03 00:47:25;;;;;;;8.80;4.10;;;16.60;63.60;;;;;;4996552;28;20452;-79
2023/01/03 00:49:53;;;;;;;7.93;3.37;;;16.70;63.50;;;;;;4995871;28;20476;-79
2023/01/03 00:52:20;;;;;;;8.50;3.50;;;16.60;63.50;;;;;;4995298;28;20453;-79
2023/01/03 00:54:50;;;;;;;6.30;4.20;;;16.60;63.30;;;;;;4995332;28;20471;-79
2023/01/03 00:57:18;;;;;;;6.00;3.60;;;16.60;63.30;;;;;;4993449;28;20465;-80
2023/01/03 00:59:45;;;;;;;8.43;3.47;;;16.60;63.40;;;;;;4990958;28;20481;-79
2023/01/03 01:02:14;;;;;;;5.70;3.53;;;16.60;63.20;;;;;;4987396;28;20453;-78
2023/01/03 01:04:42;;;;;;;7.17;3.50;;;16.60;63.10;;;;;;4983216;28;20440;-79
2023/01/03 01:07:10;;;;;;;4.07;3.03;;;16.60;63.10;;;;;;4999081;28;20457;-79
2023/01/03 01:09:39;;;;;;;7.57;3.97;;;16.50;63.00;;;;;;4977551;28;20457;-78
2023/01/03 01:12:08;;;;;;;11.77;4.07;;;16.50;63.10;;;;;;4994618;28;20456;-79
2023/01/03 01:14:36;;;;;;;5.50;3.47;;;16.50;63.00;;;;;;4996712;28;20562;-79
2023/01/03 01:17:05;;;;;;;6.37;3.23;;;16.50;63.10;;;;;;4982611;28;20480;-79
2023/01/03 01:19:34;;;;;;;7.10;3.80;;;16.50;63.10;;;;;;4994497;28;20448;-79
2023/01/03 01:22:02;;;;;;;7.17;3.37;;;16.50;63.00;;;;;;4983556;28;20482;-78
2023/01/03 01:24:30;;;;;;;5.70;3.70;;;16.50;63.10;;;;;;5000771;28;20831;-79
2023/01/03 01:26:58;;;;;;;5.07;3.47;;;16.50;63.10;;;;;;4994322;28;20488;-79
2023/01/03 01:29:28;;;;;;;8.57;3.97;;;16.50;63.00;;;;;;4994209;28;20441;-78
2023/01/03 01:31:56;;;;;;;6.30;4.00;;;16.50;63.00;;;;;;4986856;28;20449;-79
2023/01/03 01:34:24;;;;;;;10.50;4.33;;;16.50;62.90;;;;;;4974876;28;20478;-78
2023/01/03 01:36:52;;;;;;;3.60;3.30;;;16.50;63.00;;;;;;4991791;28;20477;-78
2023/01/03 01:39:21;;;;;;;5.53;3.80;;;16.50;63.00;;;;;;5002638;28;20452;-79
2023/01/03 01:44:52;;;;;;;5.60;3.80;;;16.50;63.10;;;;;;4990703;28;20440;-79
2023/01/03 01:47:28;;;;;;;5.90;4.00;;;16.50;63.30;;;;;;4993312;28;20449;-79
2023/01/03 01:49:58;;;;;;;4.30;3.90;;;16.50;63.10;;;;;;4994676;28;20476;-79
2023/01/03 01:52:27;;;;;;;12.27;7.10;;;16.50;63.30;;;;;;4995647;28;20818;-79
2023/01/03 01:54:55;;;;;;;15.80;8.30;;;16.50;63.30;;;;;;4995276;28;20476;-79
2023/01/03 01:57:24;;;;;;;10.03;6.53;;;16.50;63.40;;;;;;4995535;28;20464;-79
2023/01/03 01:59:53;;;;;;;9.53;6.23;;;16.50;63.20;;;;;;4995251;28;20477;-79
2023/01/03 02:02:22;;;;;;;11.27;6.23;;;16.50;63.50;;;;;;4995844;28;20454;-79
2023/01/03 02:04:52;;;;;;;11.63;6.30;;;16.50;63.30;;;;;;4996080;28;20441;-79
2023/01/03 02:07:20;;;;;;;9.60;6.63;;;16.50;63.20;;;;;;4995818;28;20473;-80
2023/01/03 02:09:49;;;;;;;10.60;6.33;;;16.50;63.50;;;;;;4992023;28;20484;-79
2023/01/03 02:15:11;;;;;;;8.20;6.07;;;16.50;63.30;;;;;;4984006;28;20461;-79
2023/01/03 02:17:44;;;;;;;7.23;5.57;;;16.40;63.40;;;;;;4986922;28;20452;-79
2023/01/03 02:20:26;;;;;;;10.13;5.90;;;16.40;63.20;;;;;;4994037;28;20460;-79
2023/01/03 02:23:19;;;;;;;9.20;5.50;;;16.40;63.20;;;;;;4987488;28;20469;-78
2023/01/03 02:26:29;;;;;;;8.37;5.83;;;16.40;63.50;;;;;;4984131;28;20438;-79
2023/01/03 02:29:21;;;;;;;10.50;5.80;;;16.40;63.40;;;;;;4991044;28;20444;-79
2023/01/03 02:31:54;;;;;;;8.33;5.53;;;16.40;63.50;;;;;;4994535;28;20457;-79
2023/01/03 02:34:27;;;;;;;6.83;4.90;;;16.40;63.30;;;;;;4993720;28;20438;-79
2023/01/03 02:37:00;;;;;;;5.90;5.03;;;16.40;63.40;;;;;;4987676;28;20477;-80
2023/01/03 02:39:30;;;;;;;7.27;4.90;;;16.40;63.40;;;;;;4991601;28;20461;-79
2023/01/03 02:44:44;;;;;;;6.83;4.87;;;16.40;63.40;;;;;;4990149;28;20468;-79
2023/01/03 02:47:14;;;;;;;9.83;5.40;;;16.30;63.30;;;;;;4994407;28;20448;-79
2023/01/03 02:49:44;;;;;;;9.10;4.83;;;16.30;63.20;;;;;;4992319;28;20533;-79
2023/01/03 02:52:13;;;;;;;6.90;4.67;;;16.30;63.40;;;;;;4994740;28;20460;-79
2023/01/03 02:54:43;;;;;;;8.57;5.63;;;16.30;63.10;;;;;;4978958;28;20452;-79
2023/01/03 02:57:12;;;;;;;7.63;5.53;;;16.30;63.20;;;;;;4994322;28;20449;-79
2023/01/03 02:59:42;;;;;;;7.23;4.70;;;16.30;63.40;;;;;;4975480;28;20464;-78
2023/01/03 03:02:10;;;;;;;9.40;5.20;;;16.30;63.30;;;;;;4996441;28;20563;-78
2023/01/03 03:04:40;;;;;;;8.53;5.43;;;16.30;63.40;;;;;;4991438;28;20453;-79
2023/01/03 03:07:09;;;;;;;7.90;4.80;;;16.30;63.20;;;;;;4983833;28;20479;-79
2023/01/03 03:13:12;;;;;;;8.43;4.73;;;16.30;63.10;;;;;;4989650;28;20456;-79
2023/01/03 03:15:13;;;;;;;7.37;5.10;;;16.20;63.00;;;;;;4990824;28;20457;-79
2023/01/03 03:17:41;;;;;;;5.63;4.37;;;16.20;62.90;;;;;;4986125;28;20469;-79
2023/01/03 03:25:49;;;;;;;4.47;4.07;;;16.10;62.90;;;;;;4991403;28;20460;-79
2023/01/03 03:28:35;;;;;;;5.83;4.50;;;16.10;63.10;;;;;;4990857;28;20958;-79
2023/01/03 03:31:06;;;;;;;7.23;5.00;;;16.10;62.90;;;;;;4989562;28;20561;-79
2023/01/03 03:33:35;;;;;;;6.87;5.00;;;16.10;62.80;;;;;;4992062;28;20456;-78
2023/01/03 03:36:07;;;;;;;5.97;4.63;;;16.10;62.80;;;;;;4991745;28;20485;-79
2023/01/03 03:38:37;;;;;;;7.87;4.73;;;16.10;62.70;;;;;;4991801;28;20477;-79
2023/01/03 03:46:53;;;;;;;7.23;4.33;;;16.10;62.60;;;;;;5006450;28;20459;-79
2023/01/03 03:49:37;;;;;;;6.77;4.63;;;16.00;62.80;;;;;;5008278;28;20453;-79
2023/01/03 03:52:08;;;;;;;6.07;4.37;;;16.00;62.70;;;;;;4996623;28;20475;-79
2023/01/03 03:54:38;;;;;;;5.90;4.17;;;16.00;62.70;;;;;;4997060;28;20452;-79
2023/01/03 03:57:08;;;;;;;6.53;4.20;;;16.00;63.50;;;;;;4996559;28;20995;-79
2023/01/03 03:59:36;;;;;;;5.97;4.20;;;16.00;62.80;;;;;;4986861;28;20441;-79
2023/01/03 04:02:05;;;;;;;6.30;4.23;;;16.00;62.70;;;;;;4996524;28;20461;-78
2023/01/03 04:04:35;;;;;;;7.80;4.00;;;16.00;62.70;;;;;;4995076;28;20435;-77
2023/01/03 04:07:03;;;;;;;6.57;4.23;;;16.00;62.80;;;;;;5000117;28;20481;-79
2023/01/03 04:09:32;;;;;;;7.70;4.13;;;16.00;62.60;;;;;;4994497;28;20449;-79
2023/01/03 04:12:00;;;;;;;5.63;4.07;;;15.90;63.30;;;;;;5001060;28;20460;-79
2023/01/03 04:14:27;;;;;;;5.97;4.27;;;15.90;62.50;;;;;;4994590;28;20445;-79
2023/01/03 04:16:56;;;;;;;5.47;4.10;;;15.90;62.50;;;;;;4996123;28;20472;-80
2023/01/03 04:19:24;;;;;;;7.73;4.50;;;15.90;62.50;;;;;;4990496;28;20533;-79
2023/01/03 04:21:52;;;;;;;7.57;4.90;;;15.90;62.20;;;;;;4989960;28;20484;-80
2023/01/03 04:24:21;;;;;;;4.43;3.90;;;15.90;62.40;;;;;;4989931;28;20465;-78
2023/01/03 04:26:50;;;;;;;5.40;4.37;;;15.90;62.40;;;;;;4986034;28;20460;-79
2023/01/03 04:29:18;;;;;;;4.73;4.00;;;15.80;62.10;;;;;;4984991;28;20485;-79
2023/01/03 04:31:47;;;;;;;7.23;4.73;;;15.80;62.30;;;;;;4982083;28;20450;-79
2023/01/03 04:34:15;;;;;;;5.57;4.30;;;15.80;62.30;;;;;;4987196;28;20524;-79
2023/01/03 04:36:43;;;;;;;5.67;4.30;;;15.80;62.20;;;;;;4983965;28;20493;-79
2023/01/03 04:39:11;;;;;;;8.83;4.07;;;15.80;62.00;;;;;;4990540;28;20457;-78
2023/01/03 04:41:39;;;;;;;4.07;3.67;;;15.80;62.10;;;;;;4993336;28;20469;-79
2023/01/03 04:44:07;;;;;;;4.67;3.93;;;15.80;62.00;;;;;;4988403;28;20461;-78
2023/01/03 04:46:38;;;;;;;4.57;3.63;;;15.70;61.80;;;;;;4985065;28;20459;-79
2023/01/03 04:49:07;;;;;;;8.00;4.17;;;15.70;61.90;;;;;;4991973;28;20964;-79
2023/01/03 04:51:34;;;;;;;5.00;3.70;;;15.70;62.00;;;;;;4995036;28;20473;-79
2023/01/03 04:54:02;;;;;;;4.20;3.80;;;15.70;61.90;;;;;;4991537;28;20453;-78
2023/01/03 04:56:31;;;;;;;4.00;3.40;;;15.70;61.80;;;;;;4986013;28;20474;-79
2023/01/03 04:59:00;;;;;;;5.07;3.50;;;15.70;61.90;;;;;;4979308;28;20458;-79
2023/01/03 05:01:29;;;;;;;4.90;3.53;;;15.60;61.80;;;;;;4992805;28;20477;-79
2023/01/03 05:03:58;;;;;;;6.60;3.77;;;15.60;61.60;;;;;;4981767;28;20450;-79
2023/01/03 05:06:26;;;;;;;5.53;3.80;;;15.60;61.60;;;;;;4992598;28;20470;-79
2023/01/03 05:08:54;;;;;;;4.67;3.77;;;15.60;61.90;;;;;;4990686;28;20501;-79
2023/01/03 05:11:22;;;;;;;5.83;3.87;;;15.60;61.80;;;;;;4988349;28;20474;-79
2023/01/03 05:13:50;;;;;;;4.00;3.23;;;15.60;61.60;;;;;;4984486;28;20461;-79
2023/01/03 05:16:18;;;;;;;5.10;3.60;;;15.60;61.50;;;;;;4990744;28;20473;-79
2023/01/03 05:18:52;;;;;;;6.17;3.93;;;15.60;61.70;;;;;;4981518;28;20454;-79
2023/01/03 05:26:54;;;;;;;3.70;3.37;;;15.50;62.10;;;;;;4988676;28;20465;-78
2023/01/03 05:29:22;;;;;;;4.33;3.43;;;15.50;61.40;;;;;;4991506;28;20500;-79
2023/01/03 05:31:50;;;;;;;5.60;3.80;;;15.40;61.30;;;;;;4989502;28;20457;-79
2023/01/03 05:34:20;;;;;;;3.80;3.43;;;15.50;61.20;;;;;;4986868;28;20464;-80
2023/01/03 05:36:48;;;;;;;4.33;3.07;;;15.40;61.30;;;;;;4997748;28;20484;-79
2023/01/03 05:39:15;;;;;;;4.10;3.33;;;15.40;61.30;;;;;;4982362;28;20457;-80
2023/01/03 05:41:59;;;;;;;8.73;3.67;;;15.40;61.10;;;;;;4989886;28;20473;-79
2023/01/03 05:44:27;;;;;;;5.20;3.67;;;15.40;61.00;;;;;;4989820;28;20445;-79
2023/01/03 05:46:54;;;;;;;7.47;4.10;;;15.40;61.10;;;;;;4984047;28;20472;-79
2023/01/03 05:49:23;;;;;;;5.83;3.77;;;15.40;61.00;;;;;;4981901;28;20459;-79
2023/01/03 05:51:52;;;;;;;3.83;3.10;;;15.40;60.90;;;;;;4981755;28;20469;-79
2023/01/03 05:54:20;;;;;;;4.37;3.27;;;15.40;61.10;;;;;;4989124;28;20455;-79
2023/01/03 05:56:49;;;;;;;4.10;3.67;;;15.30;60.90;;;;;;4982470;28;20478;-80
2023/01/03 05:59:17;;;;;;;3.43;3.13;;;15.40;60.80;;;;;;4986159;28;20458;-80
2023/01/03 06:01:45;;;;;;;4.47;3.07;;;15.30;60.70;;;;;;4993400;28;20450;-79
2023/01/03 06:04:13;;;;;;;5.40;4.00;;;15.30;60.80;;;;;;4988641;28;20482;-80
2023/01/03 06:06:43;;;;;;;4.77;3.80;;;15.30;61.20;;;;;;4985905;28;20838;-79
2023/01/03 06:09:11;;;;;;;4.20;3.00;;;15.30;60.80;;;;;;4986989;28;20481;-79
2023/01/03 06:11:39;;;;;;;7.60;3.60;;;15.30;61.00;;;;;;4988282;28;20481;-79
2023/01/03 06:14:07;;;;;;;5.10;3.40;;;15.30;61.00;;;;;;4987086;28;20468;-79
2023/01/03 06:19:21;;;;;;;3.70;3.07;;;15.40;61.00;;;;;;4984581;28;20480;-78
2023/01/03 06:21:51;;;;;;;4.67;3.30;;;15.30;61.00;;;;;;4993190;28;20491;-79
2023/01/03 06:24:18;;;;;;;6.20;3.87;;;15.30;60.90;;;;;;4995146;28;20461;-79
2023/01/03 06:26:46;;;;;;;4.40;3.40;;;15.30;61.00;;;;;;4993956;28;20453;-79
2023/01/03 06:29:14;;;;;;;3.70;3.40;;;15.30;61.00;;;;;;4981978;28;20481;-78
2023/01/03 06:31:42;;;;;;;4.73;3.13;;;15.30;61.10;;;;;;4989646;28;20480;-79
2023/01/03 06:34:11;;;;;;;6.40;3.63;;;15.30;60.90;;;;;;4984974;28;20461;-79
2023/01/03 06:36:38;;;;;;;3.70;2.90;;;15.30;61.10;;;;;;4992831;28;20464;-79
2023/01/03 06:39:08;;;;;;;3.93;3.13;;;15.30;61.10;;;;;;4982207;28;20462;-79
2023/01/03 06:41:36;;;;;;;4.30;3.60;;;15.30;61.00;;;;;;4986826;28;20491;-80
2023/01/03 06:44:04;;;;;;;4.30;3.53;;;15.30;61.00;;;;;;4988386;28;20453;-79
2023/01/03 06:55:06;;;;;;;3.50;3.10;;;15.30;61.10;;;;;;4929230;29;20463;-79
2023/01/03 06:57:34;;;;;;;5.57;3.40;;;15.30;61.30;;;;;;4960396;28;20478;-79
2023/01/03 07:00:04;;;;;;;5.00;3.60;;;15.30;61.30;;;;;;4986834;28;20483;-79
2023/01/03 07:02:31;;;;;;;4.17;3.77;;;15.30;61.40;;;;;;4987042;28;20461;-80
2023/01/03 07:04:59;;;;;;;4.27;3.77;;;15.30;61.40;;;;;;4983813;28;20477;-78
2023/01/03 07:07:27;;;;;;;3.93;3.53;;;15.30;61.40;;;;;;4980570;28;20465;-79
2023/01/03 07:09:55;;;;;;;3.70;3.40;;;15.30;61.20;;;;;;4986044;28;20469;-79
2023/01/03 07:15:10;;;;;;;4.50;3.60;;;15.30;61.30;;;;;;4991765;28;20453;-80
2023/01/03 07:17:38;;;;;;;5.50;3.70;;;15.30;62.00;;;;;;4995865;28;20570;-79
2023/01/03 07:20:08;;;;;;;4.60;3.63;;;15.30;61.60;;;;;;4989559;28;20484;-79
2023/01/03 07:22:35;;;;;;;4.20;3.80;;;15.30;61.50;;;;;;4991783;28;20453;-79
2023/01/03 07:25:04;;;;;;;4.17;3.67;;;15.30;61.50;;;;;;4991075;28;20453;-79
2023/01/03 07:27:33;;;;;;;4.77;3.90;;;15.30;61.30;;;;;;4992537;28;20553;-79
2023/01/03 07:30:01;;;;;;;5.40;3.50;;;15.30;61.40;;;;;;4981994;28;20465;-77
2023/01/03 07:32:29;;;;;;;7.43;3.67;;;15.30;61.50;;;;;;4980948;28;20446;-78
2023/01/03 07:34:57;;;;;;;4.07;3.67;;;15.30;61.70;;;;;;4984040;28;20536;-78
2023/01/03 07:37:25;;;;;;;4.87;4.07;;;15.30;61.60;;;;;;4993874;28;20452;-79
2023/01/03 07:39:53;;;;;;;3.57;3.13;;;15.30;61.90;;;;;;4990216;28;20479;-80
2023/01/03 07:45:09;;;;;;;5.33;3.70;;;15.30;61.70;;;;;;4989697;28;20449;-79
2023/01/03 07:47:38;;;;;;;4.83;3.43;;;15.30;61.90;;;;;;4984819;28;20485;-79
2023/01/03 07:50:06;;;;;;;4.03;3.50;;;15.30;61.80;;;;;;4988316;28;21008;-78
2023/01/03 07:52:34;;;;;;;4.87;4.30;;;15.30;61.70;;;;;;4989888;28;20870;-78
2023/01/03 07:55:02;;;;;;;5.13;4.30;;;15.30;61.60;;;;;;4987477;28;20466;-78
2023/01/03 07:57:29;;;;;;;4.90;4.07;;;15.30;61.60;;;;;;4986865;28;20465;-80
2023/01/03 07:59:58;;;;;;;5.10;4.37;;;15.30;61.50;;;;;;4991193;28;20482;-79
2023/01/03 08:02:27;;;;;;;4.93;3.93;;;15.30;61.70;;;;;;4986552;28;20462;-78
2023/01/03 08:04:56;;;;;;;6.27;4.30;;;15.20;61.40;;;;;;4993611;28;20457;-80
2023/01/03 08:07:24;;;;;;;7.80;4.33;;;15.30;61.60;;;;;;4986571;28;20520;-80
2023/01/03 08:15:23;;;;;;;8.00;4.03;;;15.30;61.60;;;;;;4984996;28;20480;-79
2023/01/03 08:17:52;;;;;;;5.23;4.30;;;15.30;61.60;;;;;;4984188;28;20496;-79
2023/01/03 08:20:20;;;;;;;7.40;4.47;;;15.30;61.50;;;;;;4992367;28;20473;-79
2023/01/03 08:22:48;;;;;;;6.53;4.73;;;15.30;61.40;;;;;;4991080;28;20465;-78
2023/01/03 08:25:16;;;;;;;5.40;4.60;;;15.40;61.50;;;;;;4987515;28;20816;-79
2023/01/03 08:27:44;;;;;;;5.27;4.60;;;15.40;61.50;;;;;;4986319;28;20469;-78
2023/01/03 08:30:17;;;;;;;6.20;4.77;;;15.40;61.40;;;;;;4984997;28;20481;-79
2023/01/03 08:32:45;;;;;;;6.00;4.90;;;15.40;61.40;;;;;;4982897;28;20466;-77
2023/01/03 08:35:15;;;;;;;5.80;4.40;;;15.40;61.60;;;;;;4986445;28;20461;-79
2023/01/03 08:37:44;;;;;;;9.80;5.07;;;15.40;61.30;;;;;;4989890;28;20543;-77
2023/01/03 08:40:12;;;;;;;6.47;4.80;;;15.40;61.20;;;;;;4992975;28;20484;-76
2023/01/03 08:42:40;;;;;;;7.43;5.00;;;15.40;61.30;;;;;;4994406;28;20473;-78
2023/01/03 08:45:10;;;;;;;8.43;5.10;;;15.40;61.40;;;;;;4994348;28;20453;-77
2023/01/03 08:47:38;;;;;;;9.50;5.50;;;15.40;61.30;;;;;;4988823;28;20464;-79
2023/01/03 08:50:06;;;;;;;6.57;5.13;;;15.40;61.50;;;;;;4994247;28;20999;-79
2023/01/03 08:52:35;;;;;;;8.40;5.90;;;15.40;61.40;;;;;;4980639;28;20454;-78
2023/01/03 08:55:04;;;;;;;8.73;5.57;;;15.40;61.40;;;;;;4988766;28;20461;-78
2023/01/03 08:57:32;;;;;;;6.40;4.93;;;15.40;61.40;;;;;;4986140;28;20450;-79
2023/01/03 09:00:00;;;;;;;7.13;5.30;;;15.40;61.30;;;;;;4985074;28;20477;-79
2023/01/03 09:02:28;;;;;;;6.70;5.03;;;15.40;61.50;;;;;;4987325;28;20489;-79
2023/01/03 09:04:57;;;;;;;9.83;5.50;;;15.40;61.40;;;;;;4984100;28;20489;-79
2023/01/03 09:07:25;;;;;;;7.60;5.50;;;15.40;61.30;;;;;;4990107;28;20473;-79
2023/01/03 09:09:55;;;;;;;6.40;5.17;;;15.40;61.40;;;;;;4989346;28;20474;-78
2023/01/03 09:12:23;;;;;;;7.30;5.40;;;15.40;61.40;;;;;;4986613;28;20457;-78
2023/01/03 09:14:51;;;;;;;6.93;4.63;;;15.40;61.60;;;;;;4981453;28;20449;-79
2023/01/03 09:17:19;;;;;;;9.13;5.23;;;15.50;61.20;;;;;;4986914;28;20456;-79
2023/01/03 09:19:47;;;;;;;8.17;5.73;;;15.50;61.50;;;;;;4988651;28;20495;-78
2023/01/03 09:22:15;;;;;;;8.10;5.87;;;15.50;61.50;;;;;;4982495;28;20463;-78
2023/01/03 09:24:43;;;;;;;8.20;5.20;;;15.50;61.30;;;;;;4985015;28;20462;-79
2023/01/03 09:27:12;;;;;;;10.23;6.20;;;15.50;61.30;;;;;;4991832;28;20457;-78
2023/01/03 09:29:40;;;;;;;7.63;5.90;;;15.50;61.10;;;;;;4985707;28;20456;-79
2023/01/03 09:32:09;;;;;;;8.20;5.40;;;15.50;61.20;;;;;;4985867;28;20453;-79
2023/01/03 09:34:37;;;;;;;8.13;6.07;;;15.50;61.20;;;;;;4989769;28;20464;-79
2023/01/03 09:37:05;;;;;;;5.77;5.17;;;15.50;61.30;;;;;;4990603;28;20464;-78
2023/01/03 09:39:33;;;;;;;6.73;5.40;;;15.50;61.30;;;;;;4985091;28;21000;-78
2023/01/03 09:44:48;;;;;;;7.60;5.93;;;15.60;61.40;;;;;;4983541;28;20480;-77
2023/01/03 09:47:18;;;;;;;9.13;5.90;;;15.60;61.50;;;;;;4983490;28;20460;-78
2023/01/03 09:49:46;;;;;;;8.40;6.63;;;15.60;61.40;;;;;;4990920;28;20515;-78
2023/01/03 10:03:56;;;;;;;6.10;5.23;;;15.60;61.40;;;;;;4986455;28;20477;-77
2023/01/03 10:06:31;;;;;;;7.33;5.90;;;15.60;61.40;;;;;;4982470;28;20473;-77
2023/01/03 10:09:09;;;;;;;6.83;5.57;;;15.60;61.50;;;;;;4981082;28;20449;-78
2023/01/03 10:11:41;;;;;;;7.17;6.00;;;15.60;61.50;;;;;;4988915;28;20473;-79
2023/01/03 10:14:16;;;;;;;7.67;5.70;;;15.60;61.50;;;;;;4986472;28;20458;-76
2023/01/03 10:16:53;;;;;;;8.10;5.77;;;15.60;61.50;;;;;;4984823;28;20461;-78
2023/01/03 10:19:49;;;;;;;7.97;5.93;;;15.60;61.70;;;;;;4988310;28;20472;-77
2023/01/03 10:22:18;;;;;;;7.43;5.60;;;15.70;61.70;;;;;;4989870;28;20464;-77
2023/01/03 10:24:49;;;;;;;8.27;6.10;;;15.70;61.60;;;;;;4990993;28;20484;-77
2023/01/03 10:27:20;;;;;;;7.07;6.00;;;15.70;61.60;;;;;;4980716;28;20454;-78
2023/01/03 10:29:49;;;;;;;6.40;5.20;;;15.80;61.60;;;;;;4988793;28;20477;-77
2023/01/03 10:32:42;;;;;;;8.47;5.80;;;15.80;61.70;;;;;;4990241;28;20466;-76
2023/01/03 10:35:16;;;;;;;7.23;5.13;;;15.90;61.80;;;;;;4988177;28;20445;-78
2023/01/03 10:37:45;;;;;;;7.43;5.60;;;16.00;62.00;;;;;;4987765;28;20479;-78
2023/01/03 10:40:13;;;;;;;9.70;5.90;;;16.10;61.80;;;;;;4985193;28;20480;-76
2023/01/03 10:42:41;;;;;;;6.67;5.00;;;16.10;61.70;;;;;;4982410;28;20464;-78
2023/01/03 10:45:11;;;;;;;7.30;5.67;;;16.10;61.50;;;;;;4991580;28;20464;-78
2023/01/03 10:47:41;;;;;;;6.47;5.20;;;16.10;61.70;;;;;;4989527;28;20480;-77
2023/01/03 10:50:20;;;;;;;6.30;5.70;;;16.10;61.90;;;;;;4986932;28;20911;-78
2023/01/03 10:52:56;;;;;;;5.80;5.20;;;16.10;62.10;;;;;;4987253;28;20509;-78
2023/01/03 10:55:25;;;;;;;6.37;5.57;;;16.10;62.10;;;;;;4986106;28;20422;-79
2023/01/03 10:58:00;;;;;;;6.10;5.00;;;16.10;62.00;;;;;;4987957;28;20445;-80
2023/01/03 11:00:30;;;;;;;6.60;5.13;;;16.20;62.30;;;;;;4992322;28;20552;-79
2023/01/03 11:03:11;;;;;;;6.63;5.60;;;16.20;62.40;;;;;;4981499;28;20593;-79
2023/01/03 11:05:40;;;;;;;6.37;4.90;;;16.20;62.40;;;;;;4996011;28;20457;-79
2023/01/03 11:08:14;;;;;;;8.03;5.73;;;16.20;62.40;;;;;;4989880;28;20449;-80
2023/01/03 11:10:50;;;;;;;6.07;5.47;;;16.20;62.40;;;;;;4993162;28;20455;-79
2023/01/03 11:13:29;;;;;;;7.37;5.23;;;16.20;62.40;;;;;;4993045;28;20438;-80
2023/01/03 11:15:58;;;;;;;5.80;5.20;;;16.20;62.60;;;;;;4987051;28;20441;-79
2023/01/03 11:18:28;;;;;;;5.37;4.87;;;16.20;63.00;;;;;;4992782;28;20453;-79
2023/01/03 11:21:04;;;;;;;6.53;5.57;;;16.30;63.20;;;;;;4993851;28;20487;-78
2023/01/03 11:23:45;;;;;;;7.80;5.77;;;16.30;63.10;;;;;;4993391;28;20449;-79
2023/01/03 11:26:17;;;;;;;5.70;5.07;;;16.40;63.10;;;;;;4993408;28;20456;-79
2023/01/03 11:28:57;;;;;;;7.30;4.87;;;16.50;63.30;;;;;;4993925;28;20453;-79
2023/01/03 11:31:33;;;;;;;6.23;5.43;;;16.60;63.10;;;;;;4993374;28;20468;-79
2023/01/03 11:34:09;;;;;;;6.70;5.33;;;16.70;63.10;;;;;;4993184;28;20441;-79
2023/01/03 11:36:43;;;;;;;10.60;5.97;;;16.80;62.80;;;;;;4987088;28;20453;-79
2023/01/03 11:39:29;;;;;;;5.57;4.93;;;16.80;62.70;;;;;;4993094;28;20468;-79
2023/01/03 11:42:33;;;;;;;5.90;5.30;;;16.80;62.70;;;;;;4987138;28;20452;-79
2023/01/03 11:45:23;;;;;;;9.03;5.90;;;16.80;62.40;;;;;;4982536;28;20437;-80
2023/01/03 11:47:57;;;;;;;10.07;5.37;;;16.70;62.80;;;;;;4989364;28;20468;-80
2023/01/03 11:50:40;;;;;;;6.40;5.50;;;16.70;62.80;;;;;;4995803;28;20464;-80
2023/01/03 11:53:14;;;;;;;7.00;5.80;;;16.70;63.00;;;;;;4987272;28;20481;-79
2023/01/03 11:56:15;;;;;;;8.17;5.20;;;16.70;63.40;;;;;;4997997;28;20437;-79
2023/01/03 11:59:07;;;;;;;6.17;5.57;;;16.80;63.50;;;;;;4975734;28;20503;-79
2023/01/03 12:01:47;;;;;;;6.20;5.53;;;16.90;63.40;;;;;;4994737;28;20993;-79
2023/01/03 12:04:24;;;;;;;7.03;5.67;;;16.90;63.10;;;;;;5013978;28;20446;-78
2023/01/03 12:07:06;;;;;;;6.63;5.43;;;16.90;63.30;;;;;;4989299;28;20511;-80
2023/01/03 12:09:57;;;;;;;6.23;5.40;;;16.90;63.30;;;;;;4986820;28;20461;-79
2023/01/03 12:12:41;;;;;;;7.87;5.93;;;16.90;63.40;;;;;;4997754;28;20445;-79
2023/01/03 12:15:14;;;;;;;7.90;5.80;;;16.90;63.30;;;;;;4999263;28;20441;-80
2023/01/03 12:17:44;;;;;;;9.57;5.93;;;16.80;63.40;;;;;;4999440;28;20528;-80
2023/01/03 12:20:16;;;;;;;7.80;6.20;;;16.80;63.50;;;;;;4997861;28;20473;-79
2023/01/03 12:22:47;;;;;;;6.03;5.43;;;16.70;63.40;;;;;;4997729;28;20434;-79
2023/01/03 12:25:19;;;;;;;7.13;5.77;;;16.70;63.60;;;;;;4998519;28;20437;-80
2023/01/03 12:27:48;;;;;;;7.97;5.47;;;16.70;63.90;;;;;;4982378;28;20464;-80
2023/01/03 12:30:32;;;;;;;7.40;6.30;;;16.70;64.10;;;;;;4988166;28;20453;-80
2023/01/03 12:33:02;;;;;;;7.70;5.40;;;16.70;64.00;;;;;;4987097;28;20445;-80
2023/01/03 12:35:32;;;;;;;8.20;5.93;;;16.80;64.30;;;;;;4996723;28;20451;-80
2023/01/03 12:38:02;;;;;;;6.90;5.80;;;16.80;64.30;;;;;;4992875;28;20434;-78
2023/01/03 12:40:38;;;;;;;6.50;5.80;;;16.80;64.20;;;;;;4994562;28;20484;-78
2023/01/03 12:43:11;;;;;;;7.53;5.97;;;16.80;64.30;;;;;;4990175;28;20444;-79
2023/01/03 12:45:42;;;;;;;14.73;9.87;;;16.80;64.90;;;;;;4994639;28;20449;-80
2023/01/03 12:48:18;;;;;;;24.70;14.90;;;17.20;65.20;;;;;;4993508;28;20489;-79
2023/01/03 12:50:48;;;;;;;28.50;17.70;;;17.30;62.40;;;;;;4987513;28;20496;-78
2023/01/03 12:54:23;;;;;;;;;;;;;;;;;;;;;
2023/01/03 12:57:55;;;;;;;32.37;19.07;;;17.10;59.10;;;;;;4992959;28;20461;-79
2023/01/03 13:04:23;;;;;;;29.30;18.50;;;16.30;58.00;;;;;;4976087;28;20445;-79
2023/01/03 13:07:20;;;;;;;33.07;18.80;;;16.00;58.60;;;;;;4996378;28;20457;-78
2023/01/03 13:10:06;;;;;;;28.07;17.73;;;16.00;58.70;;;;;;4994554;28;20525;-78
2023/01/03 13:20:43;;;;;;;34.87;18.93;;;15.20;59.00;;;;;;5003161;28;20537;-80
2023/01/03 13:23:56;;;;;;;32.93;19.07;;;15.20;59.40;;;;;;4988532;28;20441;-79
2023/01/03 13:26:32;;;;;;;33.13;19.27;;;15.10;58.90;;;;;;4993112;28;20449;-79
2023/01/03 13:29:42;;;;;;;38.90;19.60;;;15.00;59.00;;;;;;4991680;28;20452;-78
2023/01/03 13:32:17;;;;;;;36.27;19.00;;;14.90;59.80;;;;;;4951152;28;20471;-78
2023/01/03 13:35:02;;;;;;;34.70;19.27;;;15.00;59.80;;;;;;4953441;28;20510;-78
2023/01/03 13:38:12;;;;;;;;;;;;;;;;;;;;;
2023/01/03 13:41:08;;;;;;;38.57;18.90;;;15.00;59.50;;;;;;4988567;28;20472;-78
2023/01/03 13:43:47;;;;;;;38.50;21.20;;;14.80;60.20;;;;;;4996375;28;20469;-79
2023/01/03 13:46:22;;;;;;;37.50;20.70;;;14.70;59.90;;;;;;5000163;28;20445;-79
2023/01/03 13:48:55;;;;;;;33.53;20.20;;;14.70;60.00;;;;;;4989617;28;20560;-79
2023/01/03 13:51:32;;;;;;;48.23;22.30;;;14.70;60.80;;;;;;4988544;28;20472;-79
2023/01/03 13:54:04;;;;;;;37.30;21.70;;;14.70;60.60;;;;;;4990577;28;20491;-79
2023/01/03 13:56:32;;;;;;;39.93;21.67;;;14.60;60.10;;;;;;4992663;28;20460;-79
2023/01/03 13:59:11;;;;;;;38.80;21.77;;;14.60;61.70;;;;;;4994671;28;20464;-80
2023/01/03 14:01:45;;;;;;;38.70;22.37;;;14.60;61.30;;;;;;4991569;28;20477;-79
2023/01/03 14:04:50;;;;;;;35.87;22.20;;;14.60;61.50;;;;;;4986889;28;20467;-78
2023/01/03 14:08:00;;;;;;;44.20;23.20;;;14.60;61.20;;;;;;4987784;28;20461;-77
2023/01/03 14:10:41;;;;;;;38.73;23.07;;;14.50;61.90;;;;;;4968923;28;20472;-79
2023/01/03 14:13:40;;;;;;;35.77;22.40;;;14.50;62.00;;;;;;4983802;28;20461;-78
2023/01/03 14:16:25;;;;;;;36.70;21.70;;;14.50;61.60;;;;;;4987397;28;20460;-79
2023/01/03 14:18:59;;;;;;;34.13;20.77;;;14.60;62.30;;;;;;4990318;28;20450;-79
2023/01/03 14:21:41;;;;;;;38.47;21.30;;;14.50;61.50;;;;;;4989466;28;20484;-78
2023/01/03 14:24:15;;;;;;;38.03;21.60;;;14.40;63.00;;;;;;4979430;28;20460;-79
2023/01/03 14:26:45;;;;;;;36.00;21.43;;;14.40;63.10;;;;;;4988216;28;20476;-79
2023/01/03 14:29:17;;;;;;;37.97;21.33;;;14.40;63.20;;;;;;4985353;28;20473;-78